BIKFEKVG

Guest
Details From BIKF - Keflavik
To EKVG - Vagar
Flight Number -
Tags decoded
Created
Modified
Stats Distance 433 nm / 803 km
Max Altitude 0 ft / 0 m
Waypoints 4
Social Downloads 0
Likes 0
Share VATSIM

Download

Looking for another format? Having issues loading an existing format? Contact us
Advertisement - Login to hide

Notes

Requested: BIKF OKSUM 6315N MY EKVG Unmatched points: OKSUM

Route

BIKF 6315N MY EKVG

ID Type Via Altitude Latitude Longitude Leg Dist Tot Dist Heading (true) Name
O BIKF APT - 0 ft / 0 m 63.98161˚ -22.61456˚ - 0 nm - Keflavik
6315N LATLON - 0 ft / 0 m 63.00000˚ -15.00000˚ 212 nm 212 nm 103° / 109° -
MY NDB - 0 ft / 0 m 62.10694˚ -7.58778˚ 211 nm 424 nm 101° / 108° MYGGENES NDB
O EKVG APT - 0 ft / 0 m 62.06358˚ -7.27704˚ 9 nm 433 nm 106° / 107° Vagar

Altitude Profile

Advertisement - Login to hide

Weather


0- 5 10 15 20 25 30 35+ Temperature / ° C

Clouds and Precipitation
Forecast for 2018-06-24 00:00 UTC. Updated 4 hours ago

Ground ~20,000 ft ~40,000 ft Winds

BIKF

Details ICAO BIKF (KEF)
Name Keflavik
Region Iceland
Timezone Atlantic/Reykjavik (UTC+0.0)
Stats Elevation 170 ft / 52 m (AMSL)
Location 63.981612° -22.614563°
Runways 2
Magnetic Variation 13.928° W

METAR

BIKF 240100Z 21012KT 0800 R19/P1500N FG BKN002 OVC005 08/08 Q1004

Decode

TAF

TAF BIKF 231957Z 2321/2421 22010KT 7000 -DZ BR BKN005 OVC012 TX09/2415Z TN07/2405Z PROB40 TEMPO 2321/2403 0800 FG VV002 BECMG 2409/2412 9999 NSW SCT010 BKN020 BECMG 2416/2418 5000 RADZ BR BKN008 OVC013

Decode

Departure Runways

ID Width Length Bearing (true) Bearing (mag) Surface Threshold Offset Overrun Length
02 197 ft / 60 m 9,997 ft / 3,047 m 0.02° 13.95° Asphalt 0 ft / 0 m 492 ft / 150 m
11 197 ft / 60 m 10,022 ft / 3,055 m 89.97° 103.90° Asphalt 0 ft / 0 m 246 ft / 75 m
20 197 ft / 60 m 9,997 ft / 3,047 m 180.02° 193.95° Asphalt 0 ft / 0 m 98 ft / 30 m
29 197 ft / 60 m 10,022 ft / 3,055 m 270.02° 283.95° Asphalt 0 ft / 0 m 197 ft / 60 m

EKVG

Details ICAO EKVG (FAE)
Name Vagar
Region Denmark / Faroe Islands
Timezone Atlantic/Faroe (UTC+1.0)
Stats Elevation 280 ft / 85 m (AMSL)
Location 62.063584° -7.277044°
Runways 1
Magnetic Variation 5.272° W

METAR

EKVG 240050Z AUTO 22008KT 2700NDV +DZ OVC002/// 10/10 Q1015 RMK BKN004/// WIND 850FT VRB08G18KT

Decode

TAF

Not found

Destination Runways

ID Width Length Bearing (true) Bearing (mag) Surface Threshold Offset Overrun Length
13 98 ft / 30 m 4,088 ft / 1,246 m 117.92° 123.19° Asphalt 0 ft / 0 m 197 ft / 60 m
31 98 ft / 30 m 4,088 ft / 1,246 m 297.94° 303.21° Asphalt 0 ft / 0 m 197 ft / 60 m

Approach Navaids

Runway Type Ident Frequency Range Bearing (true) Bearing (mag) Slope Elevation
13 Localiser SF 109.10 MHz 17 nm / 31 km 104.19° 109.46° - 268 ft / 82 m (AMSL)
13 DME SF 109.10 MHz 18 nm / 33 km - - - 268 ft / 82 m (AMSL)
31 Localiser MF 110.30 MHz 26 nm / 48 km 296.18° 301.45° - 276 ft / 84 m (AMSL)
31 DME MF 110.30 MHz 25 nm / 46 km - - - 275 ft / 84 m (AMSL)

Popular Alternatives